Latest Weather Observations for Kadina

IDS60801

Issued at 5:51 pm CST Thursday 18 August 2022 (issued every 10 minutes, with the page automatically refreshed every 10 minutes)

About weather observations | Map of weather stations | Latest weather observations for SA | Other Formats
Station Details ID: 022050 Name: KADINA AWS Lat: -33.97 Lon: 137.66 Height: 41.14 m
Data from the previous 72 hours. | See also: Recent months at Kadina
Date/Time
CST
Temp
°C
App
Temp
°C
Dew
Point
°C
Rel
Hum
%
Delta-T
°C
Wind Press
QNH
hPa
Press
MSL
hPa
Rain since
9am
mm
Dir  Spd
km/h
Gust
km/h
Spd
kts
Gust
kts
18/05:30pm 11.7 9.4 10.4 92 0.7 WSW 13 17 7 9 1013.3 1013.3 4.6
18/05:00pm 11.5 8.4 10.2 92 0.7 WSW 17 20 9 11 1013.0 1013.0 4.6
18/04:30pm 11.3 8.2 10.2 93 0.6 WSW 17 22 9 12 1012.8 1012.8 4.6
18/04:00pm 10.7 6.4 9.5 92 0.6 SW 22 30 12 16 1012.1 1012.1 4.6
18/03:41pm 11.0 5.2 9.3 89 0.9 WSW 30 50 16 27 1012.1 1012.1 4.2
18/03:30pm 11.8 7.9 10.9 94 0.5 WSW 22 30 12 16 1012.0 1012.0 3.6
18/03:00pm 11.5 6.3 10.4 93 0.6 WSW 28 37 15 20 1011.6 1011.6 2.2
18/02:32pm 12.4 6.3 10.3 87 1.1 W 33 56 18 30 1010.8 1010.8 0.6
18/02:30pm 12.6 6.8 10.7 88 1.0 W 32 43 17 23 1010.8 1010.8 0.6
18/02:22pm 12.8 6.8 10.2 84 1.3 W 32 56 17 30 1010.5 1010.5 0.2
18/02:19pm 13.1 7.3 9.5 79 1.8 W 30 56 16 30 1010.3 1010.3 0.0
18/02:00pm 15.3 12.5 11.5 78 2.0 W 17 20 9 11 1009.7 1009.7 0.0
18/01:30pm 15.7 11.8 10.9 73 2.6 W 22 28 12 15 1009.6 1009.6 0.0
18/01:00pm 16.1 11.8 10.8 71 2.8 WNW 24 32 13 17 1009.9 1009.9 0.0
18/12:30pm 16.2 12.3 10.7 70 2.9 NW 22 30 12 16 1010.0 1010.0 0.0
18/12:00pm 16.1 11.4 10.8 71 2.8 NW 26 33 14 18 1010.6 1010.6 0.0
18/11:30am 15.8 10.8 10.8 72 2.7 NW 28 33 15 18 1010.8 1010.8 0.0
18/11:00am 14.9 9.8 10.7 76 2.2 NW 28 35 15 19 1011.1 1011.1 0.0
18/10:30am 14.8 9.4 10.8 77 2.1 NW 30 35 16 19 1011.4 1011.4 0.0
18/10:00am 14.7 10.2 11.3 80 1.8 NW 26 33 14 18 1011.2 1011.2 0.0
18/09:30am 14.2 9.2 11.0 81 1.7 NW 28 35 15 19 1011.0 1011.0 0.0
18/09:00am 13.4 8.8 11.1 86 1.2 NW 26 35 14 19 1011.5 1011.5 1.0
18/08:30am 13.1 8.8 10.6 85 1.3 NW 24 33 13 18 1011.5 1011.5 1.0
18/08:00am 12.5 8.9 10.4 87 1.1 NNW 20 28 11 15 1010.7 1010.7 1.0
18/07:30am 12.2 8.1 10.1 87 1.1 NNW 22 28 12 15 1010.6 1010.6 1.0
18/07:00am 12.0 8.5 10.2 89 0.9 NNW 19 24 10 13 1009.9 1009.9 1.0
18/06:30am 12.2 9.2 10.8 91 0.7 NNW 17 20 9 11 1010.4 1010.4 1.0
18/06:00am 12.2 9.7 10.9 92 0.7 NNW 15 19 8 10 1009.9 1009.9 1.0
18/05:30am 12.2 9.7 11.1 93 0.6 NNW 15 20 8 11 1010.2 1010.2 1.0
18/05:00am 12.3 9.8 11.2 93 0.6 N 15 17 8 9 1009.8 1009.8 1.0
18/04:30am 12.6 9.8 11.3 92 0.7 N 17 24 9 13 1009.6 1009.6 0.8
18/04:00am 12.7 9.9 11.3 91 0.7 NNW 17 22 9 12 1009.5 1009.5 0.6
18/03:30am 12.9 10.5 11.5 91 0.7 NNW 15 17 8 9 1010.2 1010.2 0.0
18/03:00am 12.6 9.8 11.5 93 0.6 NW 17 19 9 10 1010.3 1010.3 0.0
18/02:30am 11.8 9.3 10.9 94 0.5 NW 15 17 8 9 1010.5 1010.5 0.0
18/02:00am 11.3 8.6 10.4 94 0.5 N 15 17 8 9 1010.5 1010.5 0.0
18/01:30am 10.6 8.0 9.4 92 0.6 NW 13 15 7 8 1011.2 1011.2 0.0
18/01:00am 10.7 8.4 9.1 90 0.8 NW 11 13 6 7 1011.2 1011.2 0.0
18/12:30am 11.4 8.5 9.5 88 1.0 WNW 15 17 8 9 1011.1 1011.1 0.0
18/12:00am 12.4 8.5 8.7 78 1.8 W 19 20 10 11 1011.1 1011.1 0.0
 
Date/Time
CST
Temp
°C
App
Temp
°C
Dew
Point
°C
Rel
Hum
%
Delta-T
°C
Wind Press
QNH
hPa
Press
MSL
hPa
Rain since
9am
mm
Dir  Spd
km/h
Gust
km/h
Spd
kts
Gust
kts
17/11:30pm 13.3 9.4 8.8 74 2.3 NNW 19 20 10 11 1010.5 1010.5 0.0
17/11:00pm 14.9 9.8 7.7 62 3.6 NNW 24 35 13 19 1010.4 1010.4 0.0
17/10:30pm 16.2 8.7 6.3 52 4.8 N 35 48 19 26 1009.3 1009.3 0.0
17/10:00pm 16.8 8.4 5.7 48 5.4 N 39 50 21 27 1009.2 1009.2 0.0
17/09:30pm 17.5 8.8 4.1 41 6.3 N 39 52 21 28 1009.4 1009.4 0.0
17/09:00pm 17.0 8.8 5.0 45 5.7 NNE 37 50 20 27 1009.2 1009.2 0.0
17/08:30pm 17.2 8.6 4.9 44 5.9 N 39 48 21 26 1009.6 1009.6 0.0
17/08:00pm 17.2 9.2 5.5 46 5.7 N 37 50 20 27 1009.9 1009.9 0.0
17/07:30pm 17.0 8.7 5.9 48 5.4 NNE 39 52 21 28 1009.9 1009.9 0.0
17/07:00pm 16.9 9.4 6.1 49 5.3 NNE 35 48 19 26 1010.4 1010.4 0.0
17/06:30pm 15.6 9.0 7.9 60 3.9 NNE 32 41 17 22 1010.5 1010.5 0.0
17/06:00pm 16.1 9.5 7.6 57 4.3 NNE 32 41 17 22 1010.5 1010.5 0.0
17/05:30pm 15.6 9.6 7.1 57 4.2 NNE 28 39 15 21 1010.5 1010.5 0.0
17/05:00pm 15.8 9.9 7.6 58 4.1 NNE 28 39 15 21 1010.8 1010.8 0.0
17/04:30pm 15.8 9.1 7.3 57 4.2 N 32 39 17 21 1010.7 1010.7 0.0
17/04:00pm 16.0 9.0 7.0 55 4.4 N 33 44 18 24 1011.0 1011.0 0.0
17/03:30pm 15.6 8.2 6.9 56 4.3 N 35 46 19 25 1011.4 1011.4 0.0
17/03:00pm 14.7 7.5 7.7 63 3.5 N 35 50 19 27 1012.0 1012.0 0.0
17/02:30pm 14.9 7.3 7.5 61 3.7 N 37 52 20 28 1012.2 1012.2 0.0
17/02:00pm 14.7 7.9 7.7 63 3.5 N 33 43 18 23 1012.3 1012.3 0.0
17/01:30pm 14.3 7.6 8.0 66 3.1 N 33 44 18 24 1012.8 1012.8 0.0
17/01:00pm 13.9 6.9 8.3 69 2.8 N 35 52 19 28 1013.3 1013.3 0.0
17/12:30pm 14.0 5.8 8.4 69 2.8 N 41 59 22 32 1013.8 1013.8 0.0
17/12:29pm 14.0 5.8 8.2 68 2.9 N 41 59 22 32 1013.9 1013.9 0.0
17/12:00pm 14.0 7.0 8.4 69 2.8 N 35 48 19 26 1014.7 1014.7 0.0
17/11:30am 14.1 6.8 8.7 70 2.7 N 37 50 20 27 1015.3 1015.3 0.0
17/11:00am 14.2 6.8 8.2 67 3.0 N 37 48 20 26 1015.9 1015.9 0.0
17/10:30am 14.3 6.6 8.7 69 2.8 N 39 48 21 26 1016.0 1016.0 0.0
17/10:00am 14.1 6.1 7.6 65 3.2 N 39 52 21 28 1016.3 1016.3 0.0
17/09:30am 13.6 6.4 7.8 68 2.9 N 35 46 19 25 1017.1 1017.2 0.0
17/09:00am 13.3 6.8 8.2 71 2.5 N 32 43 17 23 1017.5 1017.6 0.0
17/08:30am 13.3 7.1 7.7 69 2.7 N 30 39 16 21 1017.6 1017.7 0.0
17/08:00am 12.9 7.1 8.0 72 2.4 N 28 37 15 20 1017.4 1017.5 0.0
17/07:30am 12.7 7.3 8.0 73 2.3 N 26 35 14 19 1017.2 1017.3 0.0
17/07:00am 12.7 8.6 8.6 76 2.0 N 20 28 11 15 1017.4 1017.5 0.0
17/06:30am 12.3 9.2 9.0 80 1.7 N 15 20 8 11 1017.2 1017.3 0.0
17/06:00am 11.7 9.0 9.1 84 1.3 NNE 13 15 7 8 1017.3 1017.4 0.0
17/05:30am 11.3 8.6 8.9 85 1.2 NNE 13 17 7 9 1016.8 1016.8 0.0
17/05:00am 11.6 8.1 8.6 82 1.5 N 17 24 9 13 1016.5 1016.5 0.0
17/04:30am 11.8 7.7 8.6 81 1.6 NNE 20 26 11 14 1016.3 1016.3 0.0
17/04:00am 11.1 7.2 8.7 85 1.2 NNE 19 24 10 13 1016.3 1016.3 0.0
17/03:30am 9.9 7.0 8.0 88 0.9 NNE 13 17 7 9 1016.7 1016.7 0.0
17/03:00am 10.8 7.2 8.2 84 1.3 NNE 17 20 9 11 1016.9 1016.9 0.0
17/02:30am 10.8 7.5 8.0 83 1.4 NNE 15 20 8 11 1017.4 1017.5 0.0
17/02:00am 10.7 6.6 7.9 83 1.4 NE 19 22 10 12 1017.2 1017.3 0.0
17/01:30am 10.7 6.6 7.9 83 1.4 NNE 19 22 10 12 1017.7 1017.8 0.0
17/01:00am 10.5 6.8 7.9 84 1.3 NNE 17 20 9 11 1018.1 1018.2 0.0
17/12:30am 10.4 6.3 7.8 84 1.3 NNE 19 24 10 13 1018.3 1018.4 0.0
17/12:00am 10.3 6.6 7.9 85 1.2 NNE 17 20 9 11 1018.7 1018.8 0.0
 
Date/Time
CST
Temp
°C
App
Temp
°C
Dew
Point
°C
Rel
Hum
%
Delta-T
°C
Wind Press
QNH
hPa
Press
MSL
hPa
Rain since
9am
mm
Dir  Spd
km/h
Gust
km/h
Spd
kts
Gust
kts
16/11:30pm 10.0 5.9 7.8 86 1.1 NE 19 24 10 13 1018.7 1018.8 0.0
16/11:00pm 8.9 5.0 7.2 89 0.8 NE 17 20 9 11 1019.0 1019.1 0.0
16/10:30pm 8.6 4.6 6.7 88 0.9 NE 17 22 9 12 1019.4 1019.5 0.0
16/10:00pm 8.8 5.0 7.4 91 0.7 NE 17 22 9 12 1020.0 1020.1 0.0
16/09:30pm 6.9 3.5 6.0 94 0.4 ENE 13 17 7 9 1020.5 1020.6 0.0
16/09:00pm 6.4 2.9 5.5 94 0.4 ENE 13 13 7 7 1020.4 1020.5 0.0
16/08:30pm 5.7 2.8 4.7 93 0.4 ENE 9 11 5 6 1020.8 1020.9 0.0
16/08:00pm 5.4 1.6 4.1 91 0.6 E 13 13 7 7 1020.5 1020.6 0.0
16/07:30pm 6.7 3.9 5.2 90 0.7 E 9 11 5 6 1020.9 1021.0 0.0
16/07:00pm 8.1 7.2 5.9 86 1.0 CALM 0 0 0 0 1020.8 1020.9 0.0
16/06:30pm 9.1 8.3 6.4 83 1.2 CALM 0 0 0 0 1020.4 1020.5 0.0
16/06:00pm 12.1 10.4 8.2 77 1.9 WNW 7 9 4 5 1020.2 1020.3 0.0
16/05:30pm 13.7 12.9 8.3 70 2.7 NW 2 6 1 3 1019.5 1019.6 0.0
16/05:00pm 14.6 14.3 8.5 67 3.1 CALM 0 0 0 0 1019.3 1019.4 0.0
16/04:30pm 14.7 14.0 8.4 66 3.2 NW 2 7 1 4 1019.2 1019.3 0.0
16/04:00pm 14.6 12.0 9.2 70 2.8 W 13 17 7 9 1019.8 1019.9 0.0
16/03:30pm 14.7 10.7 8.2 65 3.3 WNW 19 22 10 12 1020.2 1020.3 0.0
16/03:00pm 14.5 10.6 7.1 61 3.6 WNW 17 20 9 11 1019.9 1020.0 0.0
16/02:30pm 14.8 11.6 10.0 73 2.5 WNW 17 22 9 12 1019.8 1019.9 0.0
16/02:00pm 14.7 10.9 9.9 73 2.5 WNW 20 26 11 14 1019.9 1020.0 0.0
16/01:30pm 13.9 9.7 9.9 77 2.1 WNW 22 28 12 15 1020.1 1020.2 0.0
16/01:00pm 15.0 11.7 9.6 70 2.8 WNW 17 20 9 11 1020.1 1020.2 0.0
16/12:30pm 15.8 13.9 6.8 55 4.4 ENE 6 11 3 6 1020.3 1020.4 0.0
16/12:00pm 16.1 14.9 8.1 59 4.0 SE 4 7 2 4 1021.0 1021.1 0.0
16/11:30am 14.8 12.7 8.1 64 3.3 SE 9 17 5 9 1021.1 1021.2 0.0
16/11:00am 14.4 12.4 10.2 76 2.2 SSE 11 15 6 8 1021.2 1021.3 0.0
16/10:30am 13.7 11.5 9.2 74 2.3 SSE 11 19 6 10 1021.4 1021.5 0.0
16/10:00am 13.1 10.7 9.9 81 1.6 S 13 19 7 10 1021.5 1021.6 0.0
16/09:30am 12.3 10.5 11.0 92 0.7 S 11 13 6 7 1021.4 1021.5 0.0
16/09:00am 10.2 9.0 9.7 97 0.3 E 6 7 3 4 1021.2 1021.3 1.4
16/08:30am 7.7 5.7 7.3 97 0.2 E 7 9 4 5 1020.9 1021.0 1.4
16/08:00am 5.6 3.1 5.0 96 0.3 E 7 9 4 5 1020.3 1020.4 1.4
16/07:30am 3.5 0.3 2.9 96 0.2 ESE 9 11 5 6 1020.0 1020.1 1.4
16/07:00am 2.8 -0.9 2.2 96 0.2 ESE 11 11 6 6 1019.5 1019.6 1.4
16/06:30am 2.3 -1.5 1.7 96 0.2 E 11 11 6 6 1019.0 1019.1 1.4
16/06:00am 2.6 -0.8 1.9 95 0.3 E 9 11 5 6 1018.6 1018.7 1.4
16/05:30am 3.6 0.0 2.7 94 0.4 ESE 11 13 6 7 1018.5 1018.6 1.4
16/05:00am 6.6 3.6 6.0 96 0.3 SSW 11 11 6 6 1018.2 1018.3 1.4
16/04:30am 6.4 4.3 5.7 95 0.3 SW 6 7 3 4 1018.1 1018.2 1.4
16/04:00am 7.4 5.0 6.8 96 0.3 SW 9 11 5 6 1017.6 1017.7 1.4
16/03:30am 5.4 3.8 4.7 95 0.3 ESE 2 7 1 4 1017.3 1017.4 1.4
16/03:00am 4.5 1.8 3.8 95 0.3 ESE 7 9 4 5 1016.8 1016.8 1.4
16/02:30am 6.1 2.6 5.4 95 0.3 SE 13 15 7 8 1016.9 1016.9 1.4
16/02:00am 6.7 2.9 6.0 95 0.3 S 15 17 8 9 1017.4 1017.5 1.4
16/01:30am 6.8 3.1 6.1 95 0.3 S 15 15 8 8 1017.2 1017.3 1.4
16/01:00am 6.3 2.8 5.6 95 0.3 S 13 15 7 8 1017.0 1017.1 1.4
16/12:30am 6.7 3.3 6.0 95 0.3 SSW 13 13 7 7 1016.9 1016.9 1.4
16/12:00am 6.4 2.9 5.5 94 0.4 SSW 13 13 7 7 1016.8 1016.8 1.4
 
Date/Time
CST
Temp
°C
App
Temp
°C
Dew
Point
°C
Rel
Hum
%
Delta-T
°C
Wind Press
QNH
hPa
Press
MSL
hPa
Rain since
9am
mm
Dir  Spd
km/h
Gust
km/h
Spd
kts
Gust
kts
15/11:30pm 7.2 3.8 6.1 93 0.5 SSW 13 15 7 8 1016.6 1016.6 1.2
15/11:00pm 8.8 6.6 7.7 93 0.5 SW 9 11 5 6 1016.4 1016.4 1.2
15/10:30pm 9.6 7.6 8.5 93 0.5 WSW 9 13 5 7 1016.2 1016.2 1.2
15/10:00pm 10.0 7.3 8.9 93 0.5 SW 13 15 7 8 1015.9 1015.9 1.2
15/09:30pm 10.4 7.4 9.2 92 0.6 SW 15 19 8 10 1015.7 1015.7 1.2
15/09:00pm 9.9 7.5 8.7 92 0.6 SW 11 13 6 7 1015.5 1015.5 1.2
15/08:30pm 10.4 7.4 9.2 92 0.6 SW 15 17 8 9 1015.0 1015.0 1.2
15/08:00pm 11.1 7.9 9.9 92 0.6 SW 17 20 9 11 1014.6 1014.6 1.2
15/07:30pm 10.7 7.4 9.6 93 0.6 WSW 17 26 9 14 1014.5 1014.5 1.2
15/07:00pm 9.9 6.8 8.7 92 0.6 SW 15 19 8 10 1013.8 1013.8 1.2
15/06:30pm 10.4 7.8 9.2 92 0.6 WSW 13 15 7 8 1013.4 1013.4 1.2
15/06:00pm 11.0 7.6 9.3 89 0.9 WSW 17 28 9 15 1012.8 1012.8 1.2

Other formats

Comma delimited format used in spreadsheet applications
http://www.bom.gov.au/fwo/IDS60801/IDS60801.94685.axf

JavaScript Object Notation format (JSON) in row-major order
http://www.bom.gov.au/fwo/IDS60801/IDS60801.94685.json

Data quality

Most of these data are generated automatically and are frequently updated. Quality checks on data are not normally performed. It is possible for incorrect values to appear. Refer to information at About Latest Weather Observations and please check the disclaimer before using these data.